sensor_id;sensor_type;location;lat;lon;timestamp;temperature;humidity
63017;DHT22;50274;45.640;11.756;2023-07-09T00:02:25;24.80;61.90
63017;DHT22;50274;45.640;11.756;2023-07-09T00:04:51;24.80;61.90
63017;DHT22;50274;45.640;11.756;2023-07-09T00:07:32;24.90;61.90
63017;DHT22;50274;45.640;11.756;2023-07-09T00:09:59;24.80;62.00
63017;DHT22;50274;45.640;11.756;2023-07-09T00:12:26;24.80;62.00
63017;DHT22;50274;45.640;11.756;2023-07-09T00:14:52;24.80;62.10
63017;DHT22;50274;45.640;11.756;2023-07-09T00:17:27;24.70;62.10
63017;DHT22;50274;45.640;11.756;2023-07-09T00:19:54;24.70;62.20
63017;DHT22;50274;45.640;11.756;2023-07-09T00:22:20;24.70;62.10
63017;DHT22;50274;45.640;11.756;2023-07-09T00:24:50;24.70;62.20
63017;DHT22;50274;45.640;11.756;2023-07-09T00:27:18;24.70;62.10
63017;DHT22;50274;45.640;11.756;2023-07-09T00:29:44;24.70;62.20
63017;DHT22;50274;45.640;11.756;2023-07-09T00:32:15;24.70;62.20
63017;DHT22;50274;45.640;11.756;2023-07-09T00:34:44;24.60;62.20
63017;DHT22;50274;45.640;11.756;2023-07-09T00:37:18;24.70;62.20
63017;DHT22;50274;45.640;11.756;2023-07-09T00:39:46;24.60;62.20
63017;DHT22;50274;45.640;11.756;2023-07-09T00:42:19;24.60;62.30
63017;DHT22;50274;45.640;11.756;2023-07-09T00:44:50;24.60;62.40
63017;DHT22;50274;45.640;11.756;2023-07-09T00:50:01;24.40;62.50
63017;DHT22;50274;45.640;11.756;2023-07-09T00:52:51;24.40;62.70
63017;DHT22;50274;45.640;11.756;2023-07-09T00:55:23;24.40;62.80
63017;DHT22;50274;45.640;11.756;2023-07-09T00:57:53;24.40;62.90
63017;DHT22;50274;45.640;11.756;2023-07-09T01:00:25;24.30;62.90
63017;DHT22;50274;45.640;11.756;2023-07-09T01:02:53;24.40;62.90
63017;DHT22;50274;45.640;11.756;2023-07-09T01:05:19;24.40;62.90
63017;DHT22;50274;45.640;11.756;2023-07-09T01:07:46;24.40;62.90
63017;DHT22;50274;45.640;11.756;2023-07-09T01:10:16;24.30;63.00
63017;DHT22;50274;45.640;11.756;2023-07-09T01:12:44;24.30;63.10
63017;DHT22;50274;45.640;11.756;2023-07-09T01:15:10;24.30;63.10
63017;DHT22;50274;45.640;11.756;2023-07-09T01:17:37;24.20;63.10
63017;DHT22;50274;45.640;11.756;2023-07-09T01:20:03;24.20;63.30
63017;DHT22;50274;45.640;11.756;2023-07-09T01:22:29;24.20;63.40
63017;DHT22;50274;45.640;11.756;2023-07-09T01:25:01;24.20;63.30
63017;DHT22;50274;45.640;11.756;2023-07-09T01:27:40;24.20;63.40
63017;DHT22;50274;45.640;11.756;2023-07-09T01:30:09;24.20;63.50
63017;DHT22;50274;45.640;11.756;2023-07-09T01:32:37;24.10;63.50
63017;DHT22;50274;45.640;11.756;2023-07-09T01:35:05;24.10;63.70
63017;DHT22;50274;45.640;11.756;2023-07-09T01:37:34;24.10;63.80
63017;DHT22;50274;45.640;11.756;2023-07-09T01:40:01;24.00;63.90
63017;DHT22;50274;45.640;11.756;2023-07-09T01:42:27;24.00;64.00
63017;DHT22;50274;45.640;11.756;2023-07-09T01:44:55;24.00;64.10
63017;DHT22;50274;45.640;11.756;2023-07-09T01:47:21;24.00;64.10
63017;DHT22;50274;45.640;11.756;2023-07-09T01:49:52;24.00;64.10
63017;DHT22;50274;45.640;11.756;2023-07-09T01:52:25;24.00;64.20
63017;DHT22;50274;45.640;11.756;2023-07-09T01:54:53;23.90;64.20
63017;DHT22;50274;45.640;11.756;2023-07-09T01:57:26;23.90;64.30
63017;DHT22;50274;45.640;11.756;2023-07-09T02:00:06;23.90;64.30
63017;DHT22;50274;45.640;11.756;2023-07-09T02:02:37;23.90;64.30
63017;DHT22;50274;45.640;11.756;2023-07-09T02:05:05;23.90;64.40
63017;DHT22;50274;45.640;11.756;2023-07-09T02:07:31;23.90;64.40
63017;DHT22;50274;45.640;11.756;2023-07-09T02:09:57;23.80;64.50
63017;DHT22;50274;45.640;11.756;2023-07-09T02:12:24;23.80;64.50
63017;DHT22;50274;45.640;11.756;2023-07-09T02:14:50;23.80;64.70
63017;DHT22;50274;45.640;11.756;2023-07-09T02:17:16;23.80;64.70
63017;DHT22;50274;45.640;11.756;2023-07-09T02:19:42;23.80;64.80
63017;DHT22;50274;45.640;11.756;2023-07-09T02:22:08;23.80;64.80
63017;DHT22;50274;45.640;11.756;2023-07-09T02:24:34;23.80;64.90
63017;DHT22;50274;45.640;11.756;2023-07-09T02:27:02;23.80;64.90
63017;DHT22;50274;45.640;11.756;2023-07-09T02:29:29;23.70;65.00
63017;DHT22;50274;45.640;11.756;2023-07-09T02:31:57;23.70;65.10
63017;DHT22;50274;45.640;11.756;2023-07-09T02:34:27;23.70;65.20
63017;DHT22;50274;45.640;11.756;2023-07-09T02:36:54;23.60;65.30
63017;DHT22;50274;45.640;11.756;2023-07-09T02:39:21;23.60;65.40
63017;DHT22;50274;45.640;11.756;2023-07-09T02:41:47;23.60;65.50
63017;DHT22;50274;45.640;11.756;2023-07-09T02:44:13;23.60;65.50
63017;DHT22;50274;45.640;11.756;2023-07-09T02:46:39;23.60;65.60
63017;DHT22;50274;45.640;11.756;2023-07-09T02:49:06;23.50;65.60
63017;DHT22;50274;45.640;11.756;2023-07-09T02:51:33;23.50;65.70
63017;DHT22;50274;45.640;11.756;2023-07-09T02:54:01;23.50;65.70
63017;DHT22;50274;45.640;11.756;2023-07-09T02:56:28;23.40;65.90
63017;DHT22;50274;45.640;11.756;2023-07-09T02:58:54;23.40;66.00
63017;DHT22;50274;45.640;11.756;2023-07-09T03:01:20;23.40;66.00
63017;DHT22;50274;45.640;11.756;2023-07-09T03:03:56;23.40;66.00
63017;DHT22;50274;45.640;11.756;2023-07-09T03:06:25;23.40;66.00
63017;DHT22;50274;45.640;11.756;2023-07-09T03:08:52;23.40;65.90
63017;DHT22;50274;45.640;11.756;2023-07-09T03:11:19;23.40;65.90
63017;DHT22;50274;45.640;11.756;2023-07-09T03:13:45;23.40;65.90
63017;DHT22;50274;45.640;11.756;2023-07-09T03:16:11;23.30;65.80
63017;DHT22;50274;45.640;11.756;2023-07-09T03:18:37;23.20;66.00
63017;DHT22;50274;45.640;11.756;2023-07-09T03:21:04;23.20;66.10
63017;DHT22;50274;45.640;11.756;2023-07-09T03:23:30;23.20;66.10
63017;DHT22;50274;45.640;11.756;2023-07-09T03:25:56;23.20;66.10
63017;DHT22;50274;45.640;11.756;2023-07-09T03:28:23;23.20;66.10
63017;DHT22;50274;45.640;11.756;2023-07-09T03:30:52;23.20;66.10
63017;DHT22;50274;45.640;11.756;2023-07-09T03:33:18;23.10;66.20
63017;DHT22;50274;45.640;11.756;2023-07-09T03:35:44;23.20;66.30
63017;DHT22;50274;45.640;11.756;2023-07-09T03:38:10;23.10;66.30
63017;DHT22;50274;45.640;11.756;2023-07-09T03:40:37;23.10;66.30
63017;DHT22;50274;45.640;11.756;2023-07-09T03:43:04;23.10;66.40
63017;DHT22;50274;45.640;11.756;2023-07-09T03:45:30;23.10;66.50
63017;DHT22;50274;45.640;11.756;2023-07-09T03:47:56;23.10;66.60
63017;DHT22;50274;45.640;11.756;2023-07-09T03:50:22;23.00;66.80
63017;DHT22;50274;45.640;11.756;2023-07-09T03:52:48;22.90;67.00
63017;DHT22;50274;45.640;11.756;2023-07-09T03:55:14;22.90;67.00
63017;DHT22;50274;45.640;11.756;2023-07-09T03:57:40;22.90;67.00
63017;DHT22;50274;45.640;11.756;2023-07-09T04:00:07;22.90;67.10
63017;DHT22;50274;45.640;11.756;2023-07-09T04:02:40;22.80;67.20
63017;DHT22;50274;45.640;11.756;2023-07-09T04:05:09;22.80;67.30
63017;DHT22;50274;45.640;11.756;2023-07-09T04:07:36;22.90;67.50
63017;DHT22;50274;45.640;11.756;2023-07-09T04:10:02;22.80;67.40
63017;DHT22;50274;45.640;11.756;2023-07-09T04:12:31;22.80;67.50
63017;DHT22;50274;45.640;11.756;2023-07-09T04:14:57;22.80;67.50
63017;DHT22;50274;45.640;11.756;2023-07-09T04:17:23;22.90;67.40
63017;DHT22;50274;45.640;11.756;2023-07-09T04:19:52;22.90;67.40
63017;DHT22;50274;45.640;11.756;2023-07-09T04:22:18;23.00;67.40
63017;DHT22;50274;45.640;11.756;2023-07-09T04:24:44;23.00;67.30
63017;DHT22;50274;45.640;11.756;2023-07-09T04:27:11;23.00;67.30
63017;DHT22;50274;45.640;11.756;2023-07-09T04:29:40;23.00;67.20
63017;DHT22;50274;45.640;11.756;2023-07-09T04:32:12;23.10;67.20
63017;DHT22;50274;45.640;11.756;2023-07-09T04:34:38;23.10;67.20
63017;DHT22;50274;45.640;11.756;2023-07-09T04:37:07;23.10;67.10
63017;DHT22;50274;45.640;11.756;2023-07-09T04:39:34;23.10;67.00
63017;DHT22;50274;45.640;11.756;2023-07-09T04:42:00;23.20;66.90
63017;DHT22;50274;45.640;11.756;2023-07-09T04:44:26;23.20;66.80
63017;DHT22;50274;45.640;11.756;2023-07-09T04:46:52;23.20;66.80
63017;DHT22;50274;45.640;11.756;2023-07-09T04:49:18;23.30;66.70
63017;DHT22;50274;45.640;11.756;2023-07-09T04:51:44;23.30;66.60
63017;DHT22;50274;45.640;11.756;2023-07-09T04:54:09;23.40;66.50
63017;DHT22;50274;45.640;11.756;2023-07-09T04:56:35;23.40;66.30
63017;DHT22;50274;45.640;11.756;2023-07-09T04:59:03;23.50;66.30
63017;DHT22;50274;45.640;11.756;2023-07-09T05:01:28;23.60;66.20
63017;DHT22;50274;45.640;11.756;2023-07-09T05:03:55;23.60;66.20
63017;DHT22;50274;45.640;11.756;2023-07-09T05:06:21;23.70;66.00
63017;DHT22;50274;45.640;11.756;2023-07-09T05:08:47;23.70;65.90
63017;DHT22;50274;45.640;11.756;2023-07-09T05:11:14;23.80;65.70
63017;DHT22;50274;45.640;11.756;2023-07-09T05:13:41;23.80;65.50
63017;DHT22;50274;45.640;11.756;2023-07-09T05:16:07;23.80;65.40
63017;DHT22;50274;45.640;11.756;2023-07-09T05:18:32;23.80;65.30
63017;DHT22;50274;45.640;11.756;2023-07-09T05:20:58;23.90;65.20
63017;DHT22;50274;45.640;11.756;2023-07-09T05:23:25;24.00;65.10
63017;DHT22;50274;45.640;11.756;2023-07-09T05:25:58;24.10;65.00
63017;DHT22;50274;45.640;11.756;2023-07-09T05:28:24;24.10;64.80
63017;DHT22;50274;45.640;11.756;2023-07-09T05:30:53;24.30;64.70
63017;DHT22;50274;45.640;11.756;2023-07-09T05:33:18;24.30;64.50
63017;DHT22;50274;45.640;11.756;2023-07-09T05:35:44;24.50;64.40
63017;DHT22;50274;45.640;11.756;2023-07-09T05:38:11;24.60;64.20
63017;DHT22;50274;45.640;11.756;2023-07-09T05:40:37;24.70;63.90
63017;DHT22;50274;45.640;11.756;2023-07-09T05:43:03;24.80;63.80
63017;DHT22;50274;45.640;11.756;2023-07-09T05:45:30;24.90;63.70
63017;DHT22;50274;45.640;11.756;2023-07-09T05:47:58;25.00;63.60
63017;DHT22;50274;45.640;11.756;2023-07-09T05:50:24;25.00;63.40
63017;DHT22;50274;45.640;11.756;2023-07-09T05:52:50;25.10;63.10
63017;DHT22;50274;45.640;11.756;2023-07-09T05:55:16;25.10;62.90
63017;DHT22;50274;45.640;11.756;2023-07-09T05:57:42;25.20;62.60
63017;DHT22;50274;45.640;11.756;2023-07-09T06:00:08;25.30;62.40
63017;DHT22;50274;45.640;11.756;2023-07-09T06:02:35;25.30;62.30
63017;DHT22;50274;45.640;11.756;2023-07-09T06:05:01;25.40;62.00
63017;DHT22;50274;45.640;11.756;2023-07-09T06:07:27;25.50;61.80
63017;DHT22;50274;45.640;11.756;2023-07-09T06:09:53;25.60;61.70
63017;DHT22;50274;45.640;11.756;2023-07-09T06:12:19;25.70;61.60
63017;DHT22;50274;45.640;11.756;2023-07-09T06:14:46;25.70;61.20
63017;DHT22;50274;45.640;11.756;2023-07-09T06:17:12;25.80;60.90
63017;DHT22;50274;45.640;11.756;2023-07-09T06:19:39;25.90;60.90
63017;DHT22;50274;45.640;11.756;2023-07-09T06:22:05;25.90;60.90
63017;DHT22;50274;45.640;11.756;2023-07-09T06:24:31;26.00;61.00
63017;DHT22;50274;45.640;11.756;2023-07-09T06:26:57;26.10;61.10
63017;DHT22;50274;45.640;11.756;2023-07-09T06:29:25;26.10;60.80
63017;DHT22;50274;45.640;11.756;2023-07-09T06:31:51;26.20;60.60
63017;DHT22;50274;45.640;11.756;2023-07-09T06:34:17;26.20;60.60
63017;DHT22;50274;45.640;11.756;2023-07-09T06:36:43;26.30;60.70
63017;DHT22;50274;45.640;11.756;2023-07-09T06:39:09;26.40;60.80
63017;DHT22;50274;45.640;11.756;2023-07-09T06:41:35;26.40;60.70
63017;DHT22;50274;45.640;11.756;2023-07-09T06:44:07;26.60;60.20
63017;DHT22;50274;45.640;11.756;2023-07-09T06:46:34;26.60;60.10
63017;DHT22;50274;45.640;11.756;2023-07-09T06:49:00;26.70;59.90
63017;DHT22;50274;45.640;11.756;2023-07-09T06:51:26;26.80;59.60
63017;DHT22;50274;45.640;11.756;2023-07-09T06:53:52;26.80;59.40
63017;DHT22;50274;45.640;11.756;2023-07-09T06:56:18;26.90;59.20
63017;DHT22;50274;45.640;11.756;2023-07-09T06:58:43;26.90;59.20
63017;DHT22;50274;45.640;11.756;2023-07-09T07:01:12;27.00;59.40
63017;DHT22;50274;45.640;11.756;2023-07-09T07:03:38;27.00;59.30
63017;DHT22;50274;45.640;11.756;2023-07-09T07:06:04;27.10;59.20
63017;DHT22;50274;45.640;11.756;2023-07-09T07:08:32;27.10;59.20
63017;DHT22;50274;45.640;11.756;2023-07-09T07:11:00;27.20;58.90
63017;DHT22;50274;45.640;11.756;2023-07-09T07:13:35;27.20;58.60
63017;DHT22;50274;45.640;11.756;2023-07-09T07:16:03;27.30;58.50
63017;DHT22;50274;45.640;11.756;2023-07-09T07:18:30;27.30;58.80
63017;DHT22;50274;45.640;11.756;2023-07-09T07:20:56;27.50;58.50
63017;DHT22;50274;45.640;11.756;2023-07-09T07:23:22;27.50;58.40
63017;DHT22;50274;45.640;11.756;2023-07-09T07:25:49;27.50;58.30
63017;DHT22;50274;45.640;11.756;2023-07-09T07:28:15;27.60;58.20
63017;DHT22;50274;45.640;11.756;2023-07-09T07:30:42;27.60;58.00
63017;DHT22;50274;45.640;11.756;2023-07-09T07:33:08;27.70;57.40
63017;DHT22;50274;45.640;11.756;2023-07-09T07:35:34;27.80;57.50
63017;DHT22;50274;45.640;11.756;2023-07-09T07:38:00;27.80;57.60
63017;DHT22;50274;45.640;11.756;2023-07-09T07:40:26;27.90;57.60
63017;DHT22;50274;45.640;11.756;2023-07-09T07:42:51;28.00;57.30
63017;DHT22;50274;45.640;11.756;2023-07-09T07:45:18;28.00;57.10
63017;DHT22;50274;45.640;11.756;2023-07-09T07:47:44;28.10;57.00
63017;DHT22;50274;45.640;11.756;2023-07-09T07:50:10;28.20;56.70
63017;DHT22;50274;45.640;11.756;2023-07-09T07:52:36;28.30;56.70
63017;DHT22;50274;45.640;11.756;2023-07-09T07:55:07;28.40;56.70
63017;DHT22;50274;45.640;11.756;2023-07-09T07:57:33;28.50;56.50
63017;DHT22;50274;45.640;11.756;2023-07-09T07:59:59;28.60;56.50
63017;DHT22;50274;45.640;11.756;2023-07-09T08:02:25;28.70;56.40
63017;DHT22;50274;45.640;11.756;2023-07-09T08:04:51;28.70;56.30
63017;DHT22;50274;45.640;11.756;2023-07-09T08:07:18;28.80;56.10
63017;DHT22;50274;45.640;11.756;2023-07-09T08:09:45;28.90;56.10
63017;DHT22;50274;45.640;11.756;2023-07-09T08:12:14;29.00;56.30
63017;DHT22;50274;45.640;11.756;2023-07-09T08:14:42;29.10;56.00
63017;DHT22;50274;45.640;11.756;2023-07-09T08:17:10;29.10;56.00
63017;DHT22;50274;45.640;11.756;2023-07-09T08:20:02;29.20;55.90
63017;DHT22;50274;45.640;11.756;2023-07-09T08:22:28;29.30;55.50
63017;DHT22;50274;45.640;11.756;2023-07-09T08:24:53;29.30;55.10
63017;DHT22;50274;45.640;11.756;2023-07-09T08:27:19;29.40;54.50
63017;DHT22;50274;45.640;11.756;2023-07-09T08:29:46;29.40;54.30
63017;DHT22;50274;45.640;11.756;2023-07-09T08:32:12;29.40;54.80
63017;DHT22;50274;45.640;11.756;2023-07-09T08:34:39;29.40;55.10
63017;DHT22;50274;45.640;11.756;2023-07-09T08:37:07;29.60;55.10
63017;DHT22;50274;45.640;11.756;2023-07-09T08:39:33;29.60;55.00
63017;DHT22;50274;45.640;11.756;2023-07-09T08:42:03;29.70;54.80
63017;DHT22;50274;45.640;11.756;2023-07-09T08:47:49;29.90;53.90
63017;DHT22;50274;45.640;11.756;2023-07-09T08:50:40;30.10;53.50
63017;DHT22;50274;45.640;11.756;2023-07-09T08:53:23;30.10;51.90
63017;DHT22;50274;45.640;11.756;2023-07-09T08:55:52;30.10;51.60
63017;DHT22;50274;45.640;11.756;2023-07-09T08:58:31;30.10;51.80
63017;DHT22;50274;45.640;11.756;2023-07-09T09:01:01;30.20;52.40
63017;DHT22;50274;45.640;11.756;2023-07-09T09:03:37;30.30;52.40
63017;DHT22;50274;45.640;11.756;2023-07-09T09:06:14;30.40;52.30
63017;DHT22;50274;45.640;11.756;2023-07-09T09:11:31;30.50;51.20
63017;DHT22;50274;45.640;11.756;2023-07-09T09:14:10;30.60;51.10
63017;DHT22;50274;45.640;11.756;2023-07-09T09:16:44;30.60;49.90
63017;DHT22;50274;45.640;11.756;2023-07-09T09:19:32;30.60;49.50
63017;DHT22;50274;45.640;11.756;2023-07-09T09:22:07;30.70;49.60
63017;DHT22;50274;45.640;11.756;2023-07-09T09:27:18;30.90;48.40
63017;DHT22;50274;45.640;11.756;2023-07-09T09:29:44;30.90;47.80
63017;DHT22;50274;45.640;11.756;2023-07-09T09:32:31;31.00;47.30
63017;DHT22;50274;45.640;11.756;2023-07-09T09:35:12;31.00;48.20
63017;DHT22;50274;45.640;11.756;2023-07-09T09:37:38;31.10;48.20
63017;DHT22;50274;45.640;11.756;2023-07-09T09:40:05;31.10;48.00
63017;DHT22;50274;45.640;11.756;2023-07-09T09:42:32;31.20;48.40
63017;DHT22;50274;45.640;11.756;2023-07-09T09:44:57;31.40;48.90
63017;DHT22;50274;45.640;11.756;2023-07-09T09:47:26;31.40;48.70
63017;DHT22;50274;45.640;11.756;2023-07-09T09:49:53;31.50;48.60
63017;DHT22;50274;45.640;11.756;2023-07-09T09:52:20;31.60;48.30
63017;DHT22;50274;45.640;11.756;2023-07-09T09:54:55;31.70;47.70
63017;DHT22;50274;45.640;11.756;2023-07-09T09:57:24;31.80;47.70
63017;DHT22;50274;45.640;11.756;2023-07-09T09:59:50;32.00;47.50
63017;DHT22;50274;45.640;11.756;2023-07-09T10:02:21;32.10;47.10
63017;DHT22;50274;45.640;11.756;2023-07-09T10:04:49;32.10;45.60
63017;DHT22;50274;45.640;11.756;2023-07-09T10:07:36;32.20;45.60
63017;DHT22;50274;45.640;11.756;2023-07-09T10:10:12;32.20;45.20
63017;DHT22;50274;45.640;11.756;2023-07-09T10:21:00;32.40;43.90
63017;DHT22;50274;45.640;11.756;2023-07-09T10:34:35;32.90;44.40
63017;DHT22;50274;45.640;11.756;2023-07-09T10:37:37;32.80;45.00
63017;DHT22;50274;45.640;11.756;2023-07-09T10:40:12;32.90;44.60
63017;DHT22;50274;45.640;11.756;2023-07-09T10:42:46;32.90;44.70
63017;DHT22;50274;45.640;11.756;2023-07-09T10:45:19;32.90;44.80
63017;DHT22;50274;45.640;11.756;2023-07-09T10:47:51;33.10;45.20
63017;DHT22;50274;45.640;11.756;2023-07-09T10:50:31;33.20;45.30
63017;DHT22;50274;45.640;11.756;2023-07-09T10:53:05;33.40;45.10
63017;DHT22;50274;45.640;11.756;2023-07-09T10:56:04;33.50;45.00
63017;DHT22;50274;45.640;11.756;2023-07-09T10:58:37;33.60;44.30
63017;DHT22;50274;45.640;11.756;2023-07-09T11:01:05;33.70;43.90
63017;DHT22;50274;45.640;11.756;2023-07-09T11:03:42;33.80;43.60
63017;DHT22;50274;45.640;11.756;2023-07-09T11:06:20;33.90;43.90
63017;DHT22;50274;45.640;11.756;2023-07-09T11:08:49;34.00;44.00
63017;DHT22;50274;45.640;11.756;2023-07-09T11:11:42;34.10;43.40
63017;DHT22;50274;45.640;11.756;2023-07-09T11:14:30;34.10;42.80
63017;DHT22;50274;45.640;11.756;2023-07-09T11:16:58;34.10;41.70
63017;DHT22;50274;45.640;11.756;2023-07-09T11:19:26;34.20;41.70
63017;DHT22;50274;45.640;11.756;2023-07-09T11:22:06;34.20;42.00
63017;DHT22;50274;45.640;11.756;2023-07-09T11:25:12;34.30;42.30
63017;DHT22;50274;45.640;11.756;2023-07-09T11:27:48;34.40;42.00
63017;DHT22;50274;45.640;11.756;2023-07-09T11:30:24;34.50;41.70
63017;DHT22;50274;45.640;11.756;2023-07-09T11:33:01;34.60;41.70
63017;DHT22;50274;45.640;11.756;2023-07-09T11:35:29;34.70;41.30
63017;DHT22;50274;45.640;11.756;2023-07-09T11:38:12;34.70;41.30
63017;DHT22;50274;45.640;11.756;2023-07-09T11:40:54;34.70;41.60
63017;DHT22;50274;45.640;11.756;2023-07-09T11:43:35;34.80;42.40
63017;DHT22;50274;45.640;11.756;2023-07-09T11:46:16;34.80;41.30
63017;DHT22;50274;45.640;11.756;2023-07-09T11:48:44;34.90;40.80
63017;DHT22;50274;45.640;11.756;2023-07-09T11:51:16;34.90;40.10
63017;DHT22;50274;45.640;11.756;2023-07-09T11:53:53;34.90;38.90
63017;DHT22;50274;45.640;11.756;2023-07-09T11:56:23;35.00;38.80
63017;DHT22;50274;45.640;11.756;2023-07-09T11:58:57;35.00;38.90
63017;DHT22;50274;45.640;11.756;2023-07-09T12:01:36;35.00;38.20
63017;DHT22;50274;45.640;11.756;2023-07-09T12:04:03;35.10;38.50
63017;DHT22;50274;45.640;11.756;2023-07-09T12:06:32;35.10;38.90
63017;DHT22;50274;45.640;11.756;2023-07-09T12:08:59;35.20;39.60
63017;DHT22;50274;45.640;11.756;2023-07-09T12:11:29;35.20;39.70
63017;DHT22;50274;45.640;11.756;2023-07-09T12:14:01;35.30;39.70
63017;DHT22;50274;45.640;11.756;2023-07-09T12:16:35;35.40;40.10
63017;DHT22;50274;45.640;11.756;2023-07-09T12:19:01;35.50;40.30
63017;DHT22;50274;45.640;11.756;2023-07-09T12:21:29;35.50;39.30
63017;DHT22;50274;45.640;11.756;2023-07-09T12:23:55;35.60;39.50
63017;DHT22;50274;45.640;11.756;2023-07-09T12:26:21;35.70;39.30
63017;DHT22;50274;45.640;11.756;2023-07-09T12:28:56;35.60;38.30
63017;DHT22;50274;45.640;11.756;2023-07-09T12:31:30;35.50;38.90
63017;DHT22;50274;45.640;11.756;2023-07-09T12:33:58;35.50;39.70
63017;DHT22;50274;45.640;11.756;2023-07-09T12:36:27;35.60;39.70
63017;DHT22;50274;45.640;11.756;2023-07-09T12:38:59;35.60;39.70
63017;DHT22;50274;45.640;11.756;2023-07-09T12:41:37;35.80;39.90
63017;DHT22;50274;45.640;11.756;2023-07-09T12:44:04;35.80;38.60
63017;DHT22;50274;45.640;11.756;2023-07-09T12:46:30;35.70;37.80
63017;DHT22;50274;45.640;11.756;2023-07-09T12:48:57;35.80;38.00
63017;DHT22;50274;45.640;11.756;2023-07-09T12:51:25;35.80;37.90
63017;DHT22;50274;45.640;11.756;2023-07-09T12:54:11;35.90;38.20
63017;DHT22;50274;45.640;11.756;2023-07-09T12:56:38;35.90;38.90
63017;DHT22;50274;45.640;11.756;2023-07-09T13:01:40;36.00;39.00
63017;DHT22;50274;45.640;11.756;2023-07-09T13:04:10;36.10;38.40
63017;DHT22;50274;45.640;11.756;2023-07-09T13:06:37;36.10;38.30
63017;DHT22;50274;45.640;11.756;2023-07-09T13:09:15;36.20;38.60
63017;DHT22;50274;45.640;11.756;2023-07-09T13:11:45;36.20;38.50
63017;DHT22;50274;45.640;11.756;2023-07-09T13:14:19;36.20;38.30
63017;DHT22;50274;45.640;11.756;2023-07-09T13:16:46;36.30;38.60
63017;DHT22;50274;45.640;11.756;2023-07-09T13:19:12;36.30;38.30
63017;DHT22;50274;45.640;11.756;2023-07-09T13:21:38;36.30;38.00
63017;DHT22;50274;45.640;11.756;2023-07-09T13:24:16;36.20;37.40
63017;DHT22;50274;45.640;11.756;2023-07-09T13:26:43;36.20;37.30
63017;DHT22;50274;45.640;11.756;2023-07-09T13:29:16;36.20;37.40
63017;DHT22;50274;45.640;11.756;2023-07-09T13:32:00;36.10;37.90
63017;DHT22;50274;45.640;11.756;2023-07-09T13:34:45;36.20;38.10
63017;DHT22;50274;45.640;11.756;2023-07-09T13:37:16;36.20;37.20
63017;DHT22;50274;45.640;11.756;2023-07-09T13:39:42;36.20;37.70
63017;DHT22;50274;45.640;11.756;2023-07-09T13:42:14;36.10;37.50
63017;DHT22;50274;45.640;11.756;2023-07-09T13:44:53;36.10;37.80
63017;DHT22;50274;45.640;11.756;2023-07-09T13:47:28;36.20;37.90
63017;DHT22;50274;45.640;11.756;2023-07-09T13:49:55;36.30;38.10
63017;DHT22;50274;45.640;11.756;2023-07-09T13:52:23;36.30;38.10
63017;DHT22;50274;45.640;11.756;2023-07-09T13:54:50;36.30;38.00
63017;DHT22;50274;45.640;11.756;2023-07-09T13:57:20;36.40;38.00
63017;DHT22;50274;45.640;11.756;2023-07-09T13:59:47;36.50;37.90
63017;DHT22;50274;45.640;11.756;2023-07-09T14:02:28;36.50;37.70
63017;DHT22;50274;45.640;11.756;2023-07-09T14:05:02;36.50;36.80
63017;DHT22;50274;45.640;11.756;2023-07-09T14:07:29;36.50;37.70
63017;DHT22;50274;45.640;11.756;2023-07-09T14:09:57;36.40;38.00
63017;DHT22;50274;45.640;11.756;2023-07-09T14:12:23;36.40;37.10
63017;DHT22;50274;45.640;11.756;2023-07-09T14:14:51;36.40;37.20
63017;DHT22;50274;45.640;11.756;2023-07-09T14:17:17;36.40;37.00
63017;DHT22;50274;45.640;11.756;2023-07-09T14:19:43;36.30;36.90
63017;DHT22;50274;45.640;11.756;2023-07-09T14:22:32;36.20;37.30
63017;DHT22;50274;45.640;11.756;2023-07-09T14:24:58;36.20;37.70
63017;DHT22;50274;45.640;11.756;2023-07-09T14:27:25;36.30;37.90
63017;DHT22;50274;45.640;11.756;2023-07-09T14:29:51;36.30;38.10
63017;DHT22;50274;45.640;11.756;2023-07-09T14:32:37;36.30;37.50
63017;DHT22;50274;45.640;11.756;2023-07-09T14:35:28;36.20;38.30
63017;DHT22;50274;45.640;11.756;2023-07-09T14:38:01;36.10;38.10
63017;DHT22;50274;45.640;11.756;2023-07-09T14:40:27;36.10;38.60
63017;DHT22;50274;45.640;11.756;2023-07-09T14:42:54;36.00;38.60
63017;DHT22;50274;45.640;11.756;2023-07-09T14:45:25;35.90;38.50
63017;DHT22;50274;45.640;11.756;2023-07-09T14:47:54;35.90;39.10
63017;DHT22;50274;45.640;11.756;2023-07-09T14:50:21;35.80;39.20
63017;DHT22;50274;45.640;11.756;2023-07-09T14:52:48;35.70;39.50
63017;DHT22;50274;45.640;11.756;2023-07-09T14:55:25;35.70;39.50
63017;DHT22;50274;45.640;11.756;2023-07-09T14:57:56;35.80;39.80
63017;DHT22;50274;45.640;11.756;2023-07-09T15:00:26;35.80;39.40
63017;DHT22;50274;45.640;11.756;2023-07-09T15:02:53;35.70;39.60
63017;DHT22;50274;45.640;11.756;2023-07-09T15:05:23;35.70;39.20
63017;DHT22;50274;45.640;11.756;2023-07-09T15:08:05;35.60;39.50
63017;DHT22;50274;45.640;11.756;2023-07-09T15:10:47;35.60;39.30
63017;DHT22;50274;45.640;11.756;2023-07-09T15:13:24;35.50;39.40
63017;DHT22;50274;45.640;11.756;2023-07-09T15:15:51;35.30;38.80
63017;DHT22;50274;45.640;11.756;2023-07-09T15:18:17;35.20;39.20
63017;DHT22;50274;45.640;11.756;2023-07-09T15:20:56;35.10;39.50
63017;DHT22;50274;45.640;11.756;2023-07-09T15:23:23;35.10;39.80
63017;DHT22;50274;45.640;11.756;2023-07-09T15:25:49;35.00;40.20
63017;DHT22;50274;45.640;11.756;2023-07-09T15:28:15;34.90;40.50
63017;DHT22;50274;45.640;11.756;2023-07-09T15:30:41;34.80;40.50
63017;DHT22;50274;45.640;11.756;2023-07-09T15:33:13;34.70;40.60
63017;DHT22;50274;45.640;11.756;2023-07-09T15:35:41;34.60;40.70
63017;DHT22;50274;45.640;11.756;2023-07-09T15:40:43;34.50;40.90
63017;DHT22;50274;45.640;11.756;2023-07-09T15:43:09;34.40;41.10
63017;DHT22;50274;45.640;11.756;2023-07-09T15:45:41;34.40;41.60
63017;DHT22;50274;45.640;11.756;2023-07-09T15:48:22;34.30;41.70
63017;DHT22;50274;45.640;11.756;2023-07-09T15:50:49;34.20;41.50
63017;DHT22;50274;45.640;11.756;2023-07-09T15:53:15;34.10;41.10
63017;DHT22;50274;45.640;11.756;2023-07-09T15:55:40;34.10;41.40
63017;DHT22;50274;45.640;11.756;2023-07-09T15:58:14;34.00;41.30
63017;DHT22;50274;45.640;11.756;2023-07-09T16:00:41;33.80;41.70
63017;DHT22;50274;45.640;11.756;2023-07-09T16:03:09;33.80;42.40
63017;DHT22;50274;45.640;11.756;2023-07-09T16:05:35;33.70;42.70
63017;DHT22;50274;45.640;11.756;2023-07-09T16:08:03;33.70;42.90